»·PEaware :: CPZ5825 KSAN-KLAS

CPZ5825 :: KSAN-KLAS

FLIGHT INFORMATION

Flight Status: Arrived
Operator:
Compass Airlines
More flights by this operator :: More flights under this callsign
Pilot: James W. (12414)
Aircraft: EMBRAER EMB-170/175
(E170)
More flights by this aircraft type
Origin: KSAN San Diego Intl-Lindbergh
United States
Destination: KLAS McCarran Intl
United States
More flights between these airports :: More routes between these airports
Route: +PADRZ2 CHKNN SEBBY YELAH MISEN KEPEC6
File this flight plan on PilotEdge
Remarks:
Altitude:
(Current/Filed)
340ft
Speed:
(Current/Filed)
500kts
Departed: 04-Oct-18 07:11 PM
Arrived: 04-Oct-18 08:20 PM
Distance/Time
Traveled:
225nm/1:08
Distance/Time
To Go:
Arrived

Flight Plot

Page will automatically refresh every two minutes.

Flight plan parsing failed; only flown route is shown


Map Options




Map Legend


Flown Route
Filed Route
Departure Airport
Arrival Airport
Navaid (VOR, NDB)
Fix

Horizontal Profiles

Position Reports

Time Latitude Longitude Heading Altitude Ground
Speed
04-Oct-18 18:32 32.734123 -117.200799 209 23ft 0kts
04-Oct-18 18:33 32.734123 -117.200799 209 23ft 0kts
04-Oct-18 18:34 32.734123 -117.200799 209 23ft 0kts
04-Oct-18 18:35 32.734123 -117.200799 209 23ft 0kts
04-Oct-18 18:36 32.734123 -117.200799 209 23ft 0kts
04-Oct-18 18:37 32.734123 -117.200799 209 23ft 0kts
04-Oct-18 18:38 32.734123 -117.200799 209 23ft 0kts
04-Oct-18 18:39 32.734123 -117.200799 209 23ft 0kts
04-Oct-18 18:40 32.734123 -117.200799 209 23ft 0kts
04-Oct-18 18:41 32.734123 -117.200799 209 23ft 0kts
04-Oct-18 18:42 32.734123 -117.200799 209 23ft 0kts
04-Oct-18 18:43 32.734123 -117.200799 209 23ft 0kts
04-Oct-18 18:44 32.734123 -117.200799 209 23ft 0kts
04-Oct-18 18:45 32.734123 -117.200799 209 23ft 0kts
04-Oct-18 18:46 32.734123 -117.200799 209 23ft 0kts
04-Oct-18 18:47 32.734123 -117.200799 209 23ft 0kts
04-Oct-18 18:48 32.734123 -117.200799 209 23ft 0kts
04-Oct-18 18:49 32.734123 -117.200799 209 23ft 0kts
04-Oct-18 18:50 32.734123 -117.200799 209 23ft 0kts
04-Oct-18 18:51 32.734123 -117.200799 209 23ft 0kts
04-Oct-18 18:52 32.734123 -117.200799 209 23ft 0kts
04-Oct-18 18:53 32.734123 -117.200799 209 23ft 0kts
04-Oct-18 18:54 32.734123 -117.200799 209 23ft 0kts
04-Oct-18 18:55 32.734123 -117.200799 209 23ft 0kts
04-Oct-18 18:56 32.734123 -117.200799 209 23ft 0kts
04-Oct-18 18:57 32.734123 -117.200799 209 23ft 0kts
04-Oct-18 18:58 32.734123 -117.200799 209 23ft 0kts
04-Oct-18 18:59 32.734123 -117.200799 209 23ft 0kts
04-Oct-18 19:00 32.734119 -117.200801 209 23ft 0kts
04-Oct-18 19:01 32.734426 -117.200594 209 23ft 2kts
04-Oct-18 19:02 32.734654 -117.200653 118 23ft 0kts
04-Oct-18 19:03 32.734654 -117.200653 118 23ft 0kts
04-Oct-18 19:04 32.734430 -117.197566 106 23ft 20kts
04-Oct-18 19:05 32.733012 -117.191670 106 23ft 19kts
04-Oct-18 19:06 32.731385 -117.184960 107 23ft 21kts
04-Oct-18 19:07 32.729855 -117.178680 105 23ft 14kts
04-Oct-18 19:08 32.729501 -117.176754 74 23ft 0kts
04-Oct-18 19:09 32.729501 -117.176754 74 23ft 0kts
04-Oct-18 19:10 32.729501 -117.176754 74 23ft 0kts
04-Oct-18 19:11 32.729501 -117.176754 74 23ft 0kts
04-Oct-18 19:12 32.729505 -117.176737 74 23ft 0kts
04-Oct-18 19:13 32.730571 -117.177377 286 23ft 49kts
04-Oct-18 19:14 32.742169 -117.221713 302 1367ft 173kts
04-Oct-18 19:15 32.774762 -117.273273 304 3423ft 226kts
04-Oct-18 19:16 32.814021 -117.340225 306 5558ft 263kts
04-Oct-18 19:17 32.858779 -117.410272 306 7651ft 271kts
04-Oct-18 19:18 32.904815 -117.481795 306 9732ft 279kts
04-Oct-18 19:19 32.952534 -117.556039 306 11830ft 287kts
04-Oct-18 19:20 33.000628 -117.631210 305 13896ft 292kts
04-Oct-18 19:21 33.049578 -117.708142 304 15985ft 298kts
04-Oct-18 19:22 33.107823 -117.776274 315 18039ft 310kts
04-Oct-18 19:23 33.168331 -117.835897 315 19940ft 318kts
04-Oct-18 19:24 33.236571 -117.903456 314 22027ft 326kts
04-Oct-18 19:25 33.306059 -117.971153 314 24094ft 325kts
04-Oct-18 19:26 33.374202 -118.037632 313 26140ft 313kts
04-Oct-18 19:27 33.438159 -118.100183 311 28153ft 287kts
04-Oct-18 19:28 33.494926 -118.155729 309 30015ft 245kts
04-Oct-18 19:29 33.545227 -118.205820 308 30343ft 249kts
04-Oct-18 19:30 33.607200 -118.253736 323 30439ft 299kts
04-Oct-18 19:31 33.687780 -118.298348 326 30507ft 345kts
04-Oct-18 19:32 33.789456 -118.289552 33 30680ft 442kts
04-Oct-18 19:33 33.867463 -118.166110 58 30798ft 504kts
04-Oct-18 19:34 33.943559 -118.020501 53 31893ft 531kts
04-Oct-18 19:35 34.029073 -117.878439 52 33032ft 548kts
04-Oct-18 19:36 34.112806 -117.740128 50 32874ft 529kts
04-Oct-18 19:37 34.206663 -117.604343 46 32729ft 532kts
04-Oct-18 19:38 34.301118 -117.469469 48 32628ft 532kts
04-Oct-18 19:39 34.392329 -117.334824 49 32547ft 532kts
04-Oct-18 19:40 34.484653 -117.196407 49 32417ft 532kts
04-Oct-18 19:41 34.577117 -117.058686 49 32315ft 532kts
04-Oct-18 19:42 34.669930 -116.920717 49 31890ft 537kts
04-Oct-18 19:43 34.759306 -116.786964 49 30029ft 505kts
04-Oct-18 19:44 34.846909 -116.655593 48 28182ft 505kts
04-Oct-18 19:45 34.950338 -116.544201 33 26360ft 505kts
04-Oct-18 19:46 35.061830 -116.444771 36 24511ft 486kts
04-Oct-18 19:47 35.155157 -116.343813 45 23199ft 448kts
04-Oct-18 19:48 35.236185 -116.238405 46 21489ft 424kts
04-Oct-18 19:49 35.315229 -116.136854 45 19764ft 405kts
04-Oct-18 19:50 35.391264 -116.040941 45 18062ft 388kts
04-Oct-18 19:51 35.464526 -115.948442 46 16366ft 375kts
04-Oct-18 19:52 35.535289 -115.858683 46 14676ft 363kts
04-Oct-18 19:53 35.603694 -115.771663 46 13107ft 348kts
04-Oct-18 19:54 35.665947 -115.692252 46 13047ft 311kts
04-Oct-18 19:55 35.726001 -115.615495 46 13047ft 315kts
04-Oct-18 19:56 35.803414 -115.573045 3 13050ft 311kts
04-Oct-18 19:57 35.889322 -115.567952 359 13037ft 310kts
04-Oct-18 19:58 35.970767 -115.543805 46 12698ft 315kts
04-Oct-18 19:59 36.008462 -115.451135 72 11627ft 297kts
04-Oct-18 20:00 36.028358 -115.357350 91 10675ft 278kts
04-Oct-18 20:01 36.023125 -115.267844 98 9704ft 254kts
04-Oct-18 20:02 36.017002 -115.184061 97 8813ft 233kts
04-Oct-18 20:03 36.011928 -115.108604 97 8273ft 203kts
04-Oct-18 20:04 36.007384 -115.037978 97 8022ft 200kts
04-Oct-18 20:05 36.003429 -114.973104 97 8022ft 190kts
04-Oct-18 20:06 35.999551 -114.908352 97 8019ft 190kts
04-Oct-18 20:07 35.995669 -114.842454 97 8021ft 196kts
04-Oct-18 20:08 35.991177 -114.775667 97 8019ft 195kts
04-Oct-18 20:09 35.986772 -114.708889 97 8019ft 195kts
04-Oct-18 20:10 35.983422 -114.641981 80 7999ft 198kts
04-Oct-18 20:11 36.028937 -114.606004 10 8014ft 205kts
04-Oct-18 20:12 36.061705 -114.651319 281 8018ft 194kts
04-Oct-18 20:13 36.071892 -114.705525 280 7926ft 194kts
04-Oct-18 20:14 36.074122 -114.780949 254 7391ft 188kts
04-Oct-18 20:15 36.073372 -114.841234 267 6625ft 152kts
04-Oct-18 20:16 36.073454 -114.888677 266 5918ft 137kts
04-Oct-18 20:17 36.073509 -114.935634 267 5213ft 137kts
04-Oct-18 20:18 36.073579 -114.974738 267 4597ft 136kts
04-Oct-18 20:19 36.073689 -115.028795 267 3752ft 133kts
04-Oct-18 20:20 36.073995 -115.066547 266 3141ft 130kts
04-Oct-18 20:21 36.073656 -115.118131 266 2331ft 126kts
04-Oct-18 20:22 36.073600 -115.145334 274 2147ft 36kts
04-Oct-18 20:23 36.074911 -115.150933 313 2147ft 15kts
04-Oct-18 20:24 36.077917 -115.149233 96 2147ft 22kts
04-Oct-18 20:25 36.077532 -115.141167 91 2147ft 22kts

Navigation Log

Ident Type
Flight plan parsing failed, navigation log unavailable